Flight Track Log - Related Links

Times and Time Zones

All times are in EST time to prevent confusion due to time zone crossing. See the N406TM flight status page for this flight to view local times or setup timezone preferences in your user account.

Time Position Orientation Groundspeed Altitude Reporting Facility
EST Latitude Longitude Course Direction KTS MPH feet Rate Location/Type
Mon 11:00:55 AM 18.0000 -63.1667 319° Northwest 220 253 6,800  Level San Juan Center
Mon 11:01:55 AM 18.0167 -63.2333 285° West 240 276 9,000 2,150 Climbing San Juan Center
Mon 11:02:55 AM 18.0333 -63.3000 285° West 270 311 11,100 2,000 Climbing San Juan Center
Mon 11:03:55 AM 18.0500 -63.4000 280° West 310 357 13,000 2,150 Climbing San Juan Center
Mon 11:04:55 AM 18.0833 -63.4833 293° West 320 368 15,400 2,200 Climbing San Juan Center
Mon 11:05:55 AM 18.1000 -63.5833 280° West 340 391 17,400 2,050 Climbing San Juan Center
Mon 11:06:00 AM 18.4864 -63.5138 319° Northwest  Level FlightAware Approximate
Mon 11:06:55 AM 18.1333 -63.6833 289° West 340 391 19,500  Level San Juan Center
Mon 11:07:56 AM 18.1500 -63.7833 280° West 340 391 21,500 1,850 Climbing San Juan Center
Mon 11:08:55 AM 18.1500 -63.8667 270° West 330 380 23,200 1,600 Climbing San Juan Center
Mon 11:09:56 AM 18.1667 -63.9667 280° West 340 391 24,700 1,488 Climbing San Juan Center
Mon 11:10:56 AM 18.1833 -64.0667 280° West 350 403 26,200 1,550 Climbing San Juan Center
Mon 11:11:56 AM 18.2167 -64.1667 289° West 350 403 27,800 1,500 Climbing San Juan Center
Mon 11:12:56 AM 18.2667 -64.2500 302° West 350 403 29,200 1,450 Climbing San Juan Center
Mon 11:13:56 AM 18.3167 -64.3333 302° West 350 403 30,700 1,289 Climbing San Juan Center
Mon 11:14:57 AM 18.3833 -64.4167 310° West 350 403 31,800 1,091 Climbing San Juan Center
Mon 11:15:57 AM 18.4333 -64.5000 302° West 350 403 32,900 1,050 Climbing San Juan Center
Mon 11:16:57 AM 18.4833 -64.5833 302° West 350 403 33,900 1,000 Climbing San Juan Center
Mon 11:17:57 AM 18.5500 -64.6667 310° West 350 403 34,900 1,000 Climbing San Juan Center
Mon 11:18:57 AM 18.6000 -64.7500 302° West 340 391 35,900 1,000 Climbing San Juan Center
Mon 11:19:57 AM 18.6500 -64.8333 302° West 340 391 36,900 750 Climbing San Juan Center
Mon 11:20:57 AM 18.7167 -64.9167 310° West 330 380 37,400 550 Climbing San Juan Center
Mon 11:21:57 AM 18.7667 -65.0000 302° West 340 391 38,000 300 Climbing San Juan Center
Mon 11:22:57 AM 18.8167 -65.0833 302° West 340 391 38,000  Level San Juan Center
Mon 11:23:58 AM 18.8833 -65.1667 310° West 360 414 38,000  Level San Juan Center
Mon 11:24:58 AM 18.9333 -65.2500 302° West 380 437 38,000  Level San Juan Center
Mon 11:25:58 AM 19.0000 -65.3333 310° West 380 437 38,000  Level San Juan Center
Mon 11:26:58 AM 19.0667 -65.4333 305° West 380 437 38,000  Level San Juan Center
Mon 11:27:58 AM 19.1167 -65.5333 298° West 380 437 38,000  Level San Juan Center
Mon 11:28:58 AM 19.1667 -65.6000 308° West 360 414 38,000  Level San Juan Center
Mon 11:29:58 AM 19.2333 -65.6833 310° West 370 426 38,000  Level San Juan Center
Mon 11:30:58 AM 19.2833 -65.7833 298° West 380 437 38,000  Level San Juan Center
Mon 11:31:59 AM 19.3500 -65.8667 310° West 370 426 38,000  Level San Juan Center
Mon 11:32:59 AM 19.4000 -65.9667 298° West 380 437 38,000  Level San Juan Center
Mon 11:33:59 AM 19.4667 -66.0500 310° West 380 437 38,000  Level San Juan Center
Mon 11:34:59 AM 19.5333 -66.1500 305° West 380 437 38,000  Level San Juan Center
Mon 11:35:59 AM 19.5833 -66.2333 303° West 370 426 38,000  Level San Juan Center
Mon 11:36:59 AM 19.6500 -66.3167 310° West 370 426 38,000  Level San Juan Center
Mon 11:38:00 AM 19.7000 -66.4167 298° West 370 426 38,000  Level San Juan Center
Mon 11:38:59 AM 19.7667 -66.5000 310° West 370 426 38,000  Level San Juan Center
Mon 11:40:00 AM 19.8167 -66.6000 298° West 370 426 38,000  Level San Juan Center
Mon 11:41:00 AM 19.8833 -66.6833 310° West 370 426 38,000  Level San Juan Center
Mon 11:42:00 AM 19.9333 -66.7833 298° West 380 437 38,000  Level San Juan Center
Mon 11:43:00 AM 20.0000 -66.8667 310° West 370 426 38,000  Level San Juan Center
Mon 11:44:00 AM 20.0500 -66.9500 303° West 370 426 38,000  Level San Juan Center
Mon 11:45:00 AM 20.1167 -67.0500 305° West 370 426 38,000 50 Level San Juan Center
Mon 11:46:01 AM 20.1833 -67.1500 305° West 360 414 38,100 347 Climbing San Juan Center
Mon 11:47:01 AM 20.2333 -67.2500 298° West 340 391 38,700 600 Climbing San Juan Center
Mon 11:48:01 AM 20.2667 -67.3500 290° West 350 403 39,300 650 Climbing San Juan Center
Mon 11:49:01 AM 20.3000 -67.4500 290° West 340 391 40,000 350 Climbing San Juan Center
Mon 11:50:01 AM 20.3500 -67.5333 303° West 350 403 40,000  Level San Juan Center
Mon 11:51:01 AM 20.4167 -67.6167 310° West 360 414 40,000  Level San Juan Center
Mon 11:52:01 AM 20.4833 -67.6833 317° Northwest 350 403 40,000  Level San Juan Center
Mon 11:53:01 AM 20.5333 -67.7500 309° West 360 414 40,000  Level San Juan Center
Mon 11:54:02 AM 20.6000 -67.8500 305° West 360 414 40,000  Level San Juan Center
Mon 11:55:03 AM 20.6744 -67.9394 312° West 484 557 40,000  Level Miami Center
Mon 11:56:03 AM 20.7456 -68.0167 315° West 418 481 40,000  Level Miami Center
Mon 11:57:03 AM 20.8264 -68.0844 322° Northwest 387 445 40,000  Level Miami Center
Mon 11:58:03 AM 20.9014 -68.1594 317° Northwest 374 430 40,000  Level Miami Center
Mon 11:59:03 AM 20.9825 -68.2317 320° Northwest 374 430 40,000  Level Miami Center
Mon 12:00:03 PM 21.0614 -68.3019 320° Northwest 379 436 40,000  Level Miami Center
Mon 12:01:03 PM 21.1400 -68.3725 320° Northwest 379 436 40,000  Level Miami Center
Mon 12:02:03 PM 21.2147 -68.4433 319° Northwest 373 429 40,000  Level Miami Center
Mon 12:03:03 PM 21.3019 -68.5156 322° Northwest 378 435 40,000  Level Miami Center
Mon 12:04:03 PM 21.3828 -68.5861 321° Northwest 378 435 40,000  Level Miami Center
Mon 12:05:03 PM 21.4597 -68.6594 318° Northwest 371 427 40,000  Level Miami Center
Mon 12:06:03 PM 21.5364 -68.7303 319° Northwest 371 427 40,000  Level Miami Center
Mon 12:07:03 PM 21.6133 -68.8036 318° Northwest 371 427 40,000  Level Miami Center
Mon 12:08:03 PM 21.6919 -68.8747 320° Northwest 371 427 40,000  Level Miami Center
Mon 12:09:03 PM 21.7642 -68.9439 318° Northwest 366 421 40,000  Level Miami Center
Mon 12:10:03 PM 21.8472 -69.0172 321° Northwest 366 421 40,000  Level Miami Center
Mon 12:11:03 PM 21.9258 -69.0883 320° Northwest 366 421 40,000  Level Miami Center
Mon 12:12:03 PM 21.9983 -69.1578 318° Northwest 366 421 40,000  Level Miami Center
Mon 12:13:03 PM 22.0789 -69.2292 321° Northwest 366 421 40,000  Level Miami Center
Mon 12:14:03 PM 22.1597 -69.3028 320° Northwest 371 427 40,000  Level Miami Center
Mon 12:15:03 PM 22.2342 -69.3725 319° Northwest 365 420 40,000  Level Miami Center
Mon 12:16:03 PM 22.3128 -69.4464 319° Northwest 365 420 40,000  Level Miami Center
Mon 12:17:03 PM 22.3892 -69.5161 320° Northwest 365 420 40,000  Level Miami Center
Mon 12:18:03 PM 22.4697 -69.5900 320° Northwest 365 420 40,000  Level Miami Center
Mon 12:19:03 PM 22.5464 -69.6644 318° Northwest 370 426 40,000  Level Miami Center
Mon 12:20:03 PM 22.6247 -69.7342 321° Northwest 370 426 40,000  Level Miami Center
Mon 12:21:03 PM 22.7031 -69.8064 320° Northwest 370 426 40,000  Level Miami Center
Mon 12:22:03 PM 22.7817 -69.8808 319° Northwest 370 426 40,000  Level Miami Center
Mon 12:23:03 PM 22.8581 -69.9531 319° Northwest 370 426 40,000  Level Miami Center
Mon 12:24:03 PM 22.9344 -70.0256 319° Northwest 370 426 40,000  Level Miami Center
Mon 12:25:03 PM 23.0125 -70.0958 320° Northwest 370 426 40,000  Level Miami Center
Mon 12:26:03 PM 23.0911 -70.1728 318° Northwest 370 426 40,000  Level Miami Center
Mon 12:27:03 PM 23.1694 -70.2433 320° Northwest 371 427 40,000  Level Miami Center
Mon 12:28:03 PM 23.2500 -70.3203 319° Northwest 371 427 40,000  Level Miami Center
Mon 12:29:03 PM 23.3283 -70.3956 319° Northwest 371 427 40,000  Level Miami Center
Mon 12:30:03 PM 23.4067 -70.4683 320° Northwest 371 427 40,000  Level Miami Center
Mon 12:31:03 PM 23.4869 -70.5456 319° Northwest 376 433 40,000  Level Miami Center
Mon 12:32:03 PM 23.5672 -70.6186 320° Northwest 376 433 40,000  Level Miami Center
Mon 12:33:03 PM 23.6456 -70.6942 319° Northwest 376 433 40,000  Level Miami Center
Mon 12:34:03 PM 23.7258 -70.7694 319° Northwest 376 433 40,000  Level Miami Center
Mon 12:35:03 PM 23.8039 -70.8428 319° Northwest 381 438 40,000  Level Miami Center
Mon 12:36:03 PM 23.8822 -70.9208 318° Northwest 375 432 40,000  Level Miami Center
Mon 12:37:03 PM 23.9603 -70.9944 319° Northwest 375 432 40,000  Level Miami Center
Mon 12:38:03 PM 24.0358 -71.0544 324° Northwest 369 425 40,000  Level Miami Center
Mon 12:39:03 PM 24.1142 -71.1372 316° Northwest 374 430 40,000  Level Miami Center
Mon 12:40:03 PM 24.1922 -71.2133 318° Northwest 374 430 40,000  Level Miami Center
Mon 12:41:03 PM 24.2719 -71.2828 322° Northwest 374 430 40,000  Level Miami Center
Mon 12:42:03 PM 24.3503 -71.3633 317° Northwest 374 430 40,000  Level Miami Center
Mon 12:43:03 PM 24.4283 -71.4419 317° Northwest 380 437 40,000  Level Miami Center
Mon 12:44:03 PM 24.5039 -71.5164 318° Northwest 380 437 40,000  Level Miami Center
Mon 12:45:03 PM 24.5839 -71.5906 320° Northwest 373 429 40,000  Level Miami Center
Mon 12:46:03 PM 24.6597 -71.6717 316° Northwest 373 429 40,000  Level Miami Center
Mon 12:47:03 PM 24.7397 -71.7439 321° Northwest 373 429 40,000  Level Miami Center
Mon 12:48:03 PM 24.8172 -71.8161 320° Northwest 373 429 40,000  Level Miami Center
Mon 12:49:03 PM 24.8969 -71.8861 321° Northwest 368 423 40,000  Level Miami Center
Mon 12:50:03 PM 24.9667 -71.9703 312° West 371 427 40,000  Level Miami Center
Mon 12:50:48 PM 25.0000 -72.0000 330° Northwest 386 444 40,000  Level New York Oceanic (ODAPS)
Mon 01:27:30 PM 28.2500 -74.1167 322° Northwest 358 412 40,000  Level New York Oceanic (ODAPS)
Mon 01:53:10 PM 30.3561 -76.0500 321° Northwest 414 476 40,000  Level Jacksonville Center
Mon 01:54:10 PM 30.4267 -76.1222 319° Northwest 370 426 40,000  Level Jacksonville Center
Mon 01:55:10 PM 30.5072 -76.1814 328° Northwest 354 407 40,000  Level Jacksonville Center
Mon 01:56:10 PM 30.5775 -76.2514 319° Northwest 341 392 40,000  Level Jacksonville Center
Mon 01:57:10 PM 30.6503 -76.3258 319° Northwest 341 392 40,000  Level Jacksonville Center
Mon 01:58:10 PM 30.7264 -76.3881 325° Northwest 346 398 40,000  Level Jacksonville Center
Mon 01:59:10 PM 30.7992 -76.4653 318° Northwest 346 398 40,000  Level Jacksonville Center
Mon 02:00:10 PM 30.8736 -76.5306 323° Northwest 341 392 40,000  Level Jacksonville Center
Mon 02:01:10 PM 30.9442 -76.6103 316° Northwest 341 392 40,000  Level Jacksonville Center
Mon 02:02:10 PM 31.0203 -76.6708 326° Northwest 341 392 40,000  Level Jacksonville Center
Mon 02:03:10 PM 31.0925 -76.7411 320° Northwest 341 392 40,000  Level Jacksonville Center
Mon 02:04:10 PM 31.1633 -76.8214 316° Northwest 346 398 40,000  Level Jacksonville Center
Mon 02:05:10 PM 31.2372 -76.8872 323° Northwest 341 392 40,000  Level Jacksonville Center
Mon 02:06:10 PM 31.3114 -76.9553 322° Northwest 341 392 40,000  Level Jacksonville Center
Mon 02:07:10 PM 31.3836 -77.0261 320° Northwest 341 392 40,000  Level Jacksonville Center
Mon 02:08:10 PM 31.4519 -77.1044 316° Northwest 341 392 40,000 -250 Level Jacksonville Center
Mon 02:09:10 PM 31.5261 -77.1731 322° Northwest 341 392 39,500 -550 Descending Jacksonville Center
Mon 02:10:10 PM 31.5961 -77.2442 319° Northwest 341 392 38,900 -600 Descending Jacksonville Center
Mon 02:11:10 PM 31.6703 -77.3178 320° Northwest 336 387 38,300 -450 Descending Jacksonville Center
Mon 02:12:10 PM 31.7425 -77.3942 318° Northwest 353 406 38,000 -150 Descending Jacksonville Center
Mon 02:13:10 PM 31.8144 -77.4681 319° Northwest 348 400 38,000  Level Jacksonville Center
Mon 02:14:10 PM 31.8867 -77.5444 318° Northwest 337 388 38,000  Level Jacksonville Center
Mon 02:15:10 PM 31.9567 -77.6211 317° Northwest 337 388 38,000 -50 Level Jacksonville Center
Mon 02:16:10 PM 32.0306 -77.6928 321° Northwest 337 388 37,900 -400 Descending Jacksonville Center
Mon 02:17:10 PM 32.1025 -77.7697 318° Northwest 342 394 37,200 -800 Descending Jacksonville Center
Mon 02:18:10 PM 32.1747 -77.8517 316° Northwest 347 399 36,300 -600 Descending Jacksonville Center
Mon 02:19:10 PM 32.2486 -77.9261 320° Northwest 353 406 36,000 -350 Descending Jacksonville Center
Mon 02:20:10 PM 32.3206 -78.0008 319° Northwest 353 406 35,600 -750 Descending Jacksonville Center
Mon 02:21:10 PM 32.3944 -78.0806 318° Northwest 353 406 34,500 -1,050 Descending Jacksonville Center
Mon 02:22:10 PM 32.4703 -78.1553 320° Northwest 353 406 33,500 -1,000 Descending Jacksonville Center
Mon 02:23:10 PM 32.5444 -78.2375 317° Northwest 359 413 32,500 -1,000 Descending Jacksonville Center
Mon 02:24:10 PM 32.6225 -78.3225 317° Northwest 365 420 31,500 -750 Descending Jacksonville Center
Mon 02:25:10 PM 32.7006 -78.4047 318° Northwest 370 426 31,000 -250 Descending Jacksonville Center
Mon 02:26:10 PM 32.7767 -78.4875 318° Northwest 376 433 31,000  Level Jacksonville Center
Mon 02:27:10 PM 32.8500 -78.5606 320° Northwest 376 433 31,000  Level Jacksonville Center
Mon 02:28:10 PM 32.9347 -78.6531 318° Northwest 376 433 31,000  Level Jacksonville Center
Mon 02:29:10 PM 33.0125 -78.7386 317° Northwest 376 433 31,000  Level Jacksonville Center
Mon 02:30:10 PM 33.0861 -78.8194 317° Northwest 376 433 31,000 -300 Level Jacksonville Center
Mon 02:31:10 PM 33.1617 -78.8928 321° Northwest 376 433 30,400 -800 Descending Jacksonville Center
Mon 02:32:10 PM 33.2372 -78.9789 316° Northwest 376 433 29,400 -1,000 Descending Jacksonville Center
Mon 02:33:10 PM 33.3128 -79.0575 319° Northwest 376 433 28,400 -1,000 Descending Jacksonville Center
Mon 02:34:10 PM 33.3925 -79.1436 318° Northwest 376 433 27,400 -1,100 Descending Jacksonville Center
Mon 02:35:10 PM 33.4789 -79.2369 318° Northwest 381 438 26,200 -1,100 Descending Jacksonville Center
Mon 02:36:10 PM 33.5564 -79.3236 317° Northwest 381 438 25,200 -1,050 Descending Jacksonville Center
Mon 02:37:10 PM 33.6339 -79.4053 319° Northwest 381 438 24,100 -1,550 Descending Jacksonville Center
Mon 02:38:10 PM 33.7069 -79.4897 316° Northwest 381 438 22,100 -1,050 Descending Jacksonville Center
Mon 02:39:10 PM 33.7800 -79.5669 319° Northwest 369 425 22,000 -50 Descending Jacksonville Center
Mon 02:40:10 PM 33.8489 -79.6442 317° Northwest 350 403 22,000 -400 Level Jacksonville Center
Mon 02:41:10 PM 33.9153 -79.7169 318° Northwest 338 389 21,200 -900 Descending Jacksonville Center
Mon 02:42:10 PM 33.9797 -79.7872 318° Northwest 325 374 20,200 -1,000 Descending Jacksonville Center
Mon 02:43:10 PM 34.0442 -79.8625 316° Northwest 318 366 19,200 -992 Descending Jacksonville Center
Mon 02:44:11 PM 34.1186 -79.9228 326° Northwest 318 366 18,200 -850 Descending Jacksonville Center
Mon 02:45:10 PM 34.1992 -79.9753 332° Northwest 323 372 17,500 -958 Descending Jacksonville Center
Mon 02:46:10 PM 34.2797 -80.0303 331° Northwest 328 377 16,300 -1,240 Descending Jacksonville Center
Mon 02:47:11 PM 34.3581 -80.0806 332° Northwest 328 377 15,000 -1,250 Descending Jacksonville Center
Mon 02:48:10 PM 34.4383 -80.1333 332° Northwest 328 377 13,800 -1,109 Descending Jacksonville Center
Mon 02:49:10 PM 34.5147 -80.1889 329° Northwest 322 371 12,800 -955 Descending Jacksonville Center
Mon 02:51:06 PM 34.6531 -80.2839 331° Northwest 270 311 11,000 -587 Descending Atlanta Center
Mon 02:52:14 PM 34.7136 -80.3544 316° Northwest 285 328 11,000  Level Atlanta Center
Mon 02:52:56 PM 34.7547 -80.4083 313° West 311 358 11,000  Level Atlanta Center
Mon 02:54:04 PM 34.8242 -80.4964 314° West 313 360 11,000 -188 Level Atlanta Center
Mon 02:55:04 PM 34.8828 -80.5700 314° West 311 358 10,600 -496 Descending Atlanta Center
Mon 02:56:05 PM 34.9433 -80.6458 314° West 309 356 10,000 -293 Descending Atlanta Center
Mon 02:57:07 PM 35.0081 -80.7244 315° West 310 357 10,000  Level Atlanta Center
Mon 02:58:14 PM 35.0664 -80.7983 314° West 276 318 10,000 -469 Level Atlanta Center
Mon 02:59:15 PM 35.1394 -80.8056 355° North 242 278 9,000 -1,033 Descending Atlanta Center
Mon 03:00:16 PM 35.2083 -80.8078 358° North 243 280 7,900 -1,397 Descending Atlanta Center
Mon 03:01:11 PM 35.2692 -80.8131 356° North 239 275 6,300 -1,574 Descending Atlanta Center
Mon 03:02:18 PM 35.3400 -80.8181 357° North 238 274 4,700 -1,131 Descending Atlanta Center
Mon 03:03:13 PM 35.4008 -80.8311 350° North 232 267 4,000 -362 Descending Atlanta Center
Mon 03:04:14 PM 35.4439 -80.8725 322° Northwest 199 229 4,000  Level Atlanta Center
Mon 03:05:15 PM 35.4431 -80.9314 269° West 165 190 4,000  Level Atlanta Center
Mon 03:06:17 PM 35.4061 -80.9556 208° Southwest 162 186 4,000 -234 Level Atlanta Center
Mon 03:07:23 PM 35.3539 -80.9525 177° South 166 191 3,500 -703 Descending Atlanta Center
Mon 03:08:25 PM 35.3081 -80.9467 174° South 169 194 2,500 -927 Descending Atlanta Center
Mon 03:09:26 PM 35.2661 -80.9431 176° South 152 175 1,600 -776 Descending Atlanta Center
Mon 03:10:21 PM 35.2328 -80.9392 175° South 124 143 1,000 -655 Descending Atlanta Center

Login

Don't have an account? Register now (free) for customized features, flight alerts, and more!